sensor_id;sensor_type;location;lat;lon;timestamp;pressure;altitude;pressure_sealevel;temperature;humidity
60049;BME280;66154;45.544;6.756;2024-03-17T00:00:16;87609.34;;;4.34;60.54
60049;BME280;66154;45.544;6.756;2024-03-17T00:05:18;87603.78;;;4.29;59.89
60049;BME280;66154;45.544;6.756;2024-03-17T00:10:19;87603.03;;;4.28;61.85
60049;BME280;66154;45.544;6.756;2024-03-17T00:15:19;87606.38;;;4.29;60.96
60049;BME280;66154;45.544;6.756;2024-03-17T00:20:20;87611.56;;;4.29;60.70
60049;BME280;66154;45.544;6.756;2024-03-17T00:25:21;87607.13;;;4.26;60.67
60049;BME280;66154;45.544;6.756;2024-03-17T00:30:22;87587.41;;;4.21;61.28
60049;BME280;66154;45.544;6.756;2024-03-17T00:35:22;87582.94;;;4.18;61.97
60049;BME280;66154;45.544;6.756;2024-03-17T00:40:23;87575.47;;;4.13;60.05
60049;BME280;66154;45.544;6.756;2024-03-17T00:45:23;87579.19;;;4.12;58.55
60049;BME280;66154;45.544;6.756;2024-03-17T00:50:24;87574.34;;;4.11;59.58
60049;BME280;66154;45.544;6.756;2024-03-17T00:55:25;87570.66;;;4.12;60.12
60049;BME280;66154;45.544;6.756;2024-03-17T01:00:25;87575.47;;;4.13;60.67
60049;BME280;66154;45.544;6.756;2024-03-17T01:05:26;87569.56;;;4.16;61.08
60049;BME280;66154;45.544;6.756;2024-03-17T01:10:26;87566.59;;;4.21;60.84
60049;BME280;66154;45.544;6.756;2024-03-17T01:15:27;87551.72;;;4.25;60.59
60049;BME280;66154;45.544;6.756;2024-03-17T01:20:28;87546.53;;;4.25;61.18
60049;BME280;66154;45.544;6.756;2024-03-17T01:25:28;87542.78;;;4.26;61.23
60049;BME280;66154;45.544;6.756;2024-03-17T01:30:30;87541.31;;;4.25;60.86
60049;BME280;66154;45.544;6.756;2024-03-17T01:35:32;87543.53;;;4.23;61.40
60049;BME280;66154;45.544;6.756;2024-03-17T01:40:33;87541.31;;;4.22;61.14
60049;BME280;66154;45.544;6.756;2024-03-17T01:45:34;87529.41;;;4.17;60.68
60049;BME280;66154;45.544;6.756;2024-03-17T01:50:36;87527.91;;;4.13;60.48
60049;BME280;66154;45.544;6.756;2024-03-17T01:55:38;87524.91;;;4.07;60.74
60049;BME280;66154;45.544;6.756;2024-03-17T02:00:40;87519.31;;;4.02;61.21
60049;BME280;66154;45.544;6.756;2024-03-17T02:05:40;87522.66;;;3.95;60.91
60049;BME280;66154;45.544;6.756;2024-03-17T02:10:41;87525.25;;;3.92;61.46
60049;BME280;66154;45.544;6.756;2024-03-17T02:15:41;87522.25;;;3.86;60.75
60049;BME280;66154;45.544;6.756;2024-03-17T02:20:42;87510.00;;;3.83;61.32
60049;BME280;66154;45.544;6.756;2024-03-17T02:26:01;87494.41;;;3.80;62.78
60049;BME280;66154;45.544;6.756;2024-03-17T02:31:01;87485.09;;;3.79;58.93
60049;BME280;66154;45.544;6.756;2024-03-17T02:36:03;87480.63;;;3.76;60.19
60049;BME280;66154;45.544;6.756;2024-03-17T02:41:10;87478.41;;;3.74;59.80
60049;BME280;66154;45.544;6.756;2024-03-17T02:46:15;87485.47;;;3.74;61.41
60049;BME280;66154;45.544;6.756;2024-03-17T02:51:17;87494.00;;;3.78;60.56
60049;BME280;66154;45.544;6.756;2024-03-17T02:56:18;87495.13;;;3.80;61.04
60049;BME280;66154;45.544;6.756;2024-03-17T03:01:19;87485.84;;;3.76;60.55
60049;BME280;66154;45.544;6.756;2024-03-17T03:06:19;87482.47;;;3.72;60.83
60049;BME280;66154;45.544;6.756;2024-03-17T03:11:20;87489.16;;;3.69;59.91
60049;BME280;66154;45.544;6.756;2024-03-17T03:16:21;87483.94;;;3.65;59.55
60049;BME280;66154;45.544;6.756;2024-03-17T03:21:21;87478.00;;;3.65;60.18
60049;BME280;66154;45.544;6.756;2024-03-17T03:26:22;87475.78;;;3.63;59.87
60049;BME280;66154;45.544;6.756;2024-03-17T03:31:23;87476.53;;;3.64;60.30
60049;BME280;66154;45.544;6.756;2024-03-17T03:36:24;87472.78;;;3.65;60.09
60049;BME280;66154;45.544;6.756;2024-03-17T03:41:25;87480.59;;;3.68;60.38
60049;BME280;66154;45.544;6.756;2024-03-17T03:46:26;87489.16;;;3.72;59.91
60049;BME280;66154;45.544;6.756;2024-03-17T03:51:26;87497.72;;;3.77;60.64
60049;BME280;66154;45.544;6.756;2024-03-17T03:56:27;87500.69;;;3.79;60.41
60049;BME280;66154;45.544;6.756;2024-03-17T04:01:29;87483.25;;;3.79;60.49
60049;BME280;66154;45.544;6.756;2024-03-17T04:06:30;87476.94;;;3.84;60.39
60049;BME280;66154;45.544;6.756;2024-03-17T04:11:34;87469.88;;;3.88;60.06
60049;BME280;66154;45.544;6.756;2024-03-17T04:16:36;87470.25;;;3.90;61.03
60049;BME280;66154;45.544;6.756;2024-03-17T04:21:36;87475.09;;;3.91;60.07
60049;BME280;66154;45.544;6.756;2024-03-17T04:26:37;87477.31;;;3.93;59.66
60049;BME280;66154;45.544;6.756;2024-03-17T04:31:38;87482.91;;;3.98;59.39
60049;BME280;66154;45.544;6.756;2024-03-17T04:36:39;87476.25;;;4.08;58.59
60049;BME280;66154;45.544;6.756;2024-03-17T04:41:39;87478.13;;;4.14;58.53
60049;BME280;66154;45.544;6.756;2024-03-17T04:46:41;87482.94;;;4.19;59.76
60049;BME280;66154;45.544;6.756;2024-03-17T04:51:41;87470.69;;;4.20;60.02
60049;BME280;66154;45.544;6.756;2024-03-17T04:56:42;87466.94;;;4.21;59.78
60049;BME280;66154;45.544;6.756;2024-03-17T05:01:42;87459.53;;;4.23;59.82
60049;BME280;66154;45.544;6.756;2024-03-17T05:06:43;87453.22;;;4.24;59.85
60049;BME280;66154;45.544;6.756;2024-03-17T05:11:46;87447.25;;;4.27;60.07
60049;BME280;66154;45.544;6.756;2024-03-17T05:16:50;87447.25;;;4.30;58.56
60049;BME280;66154;45.544;6.756;2024-03-17T05:21:51;87448.00;;;4.38;59.07
60049;BME280;66154;45.544;6.756;2024-03-17T05:26:52;87455.09;;;4.41;59.10
60049;BME280;66154;45.544;6.756;2024-03-17T05:31:53;87452.09;;;4.42;59.08
60049;BME280;66154;45.544;6.756;2024-03-17T05:36:53;87458.44;;;4.45;59.21
60049;BME280;66154;45.544;6.756;2024-03-17T05:41:54;87460.66;;;4.46;59.48
60049;BME280;66154;45.544;6.756;2024-03-17T05:46:54;87461.78;;;4.49;59.08
60049;BME280;66154;45.544;6.756;2024-03-17T05:51:58;87458.41;;;4.52;58.55
60049;BME280;66154;45.544;6.756;2024-03-17T05:56:58;87462.13;;;4.58;58.24
60049;BME280;66154;45.544;6.756;2024-03-17T06:01:58;87457.28;;;4.67;58.57
60049;BME280;66154;45.544;6.756;2024-03-17T06:06:59;87459.16;;;4.74;58.49
60049;BME280;66154;45.544;6.756;2024-03-17T06:12:00;87456.16;;;4.82;58.04
60049;BME280;66154;45.544;6.756;2024-03-17T06:17:01;87471.41;;;4.94;57.63
60049;BME280;66154;45.544;6.756;2024-03-17T06:22:01;87480.69;;;5.06;57.91
60049;BME280;66154;45.544;6.756;2024-03-17T06:27:02;87493.31;;;5.07;58.41
60049;BME280;66154;45.544;6.756;2024-03-17T06:32:04;87497.06;;;5.06;58.23
60049;BME280;66154;45.544;6.756;2024-03-17T06:37:04;87503.03;;;5.07;58.42
60049;BME280;66154;45.544;6.756;2024-03-17T06:42:05;87507.47;;;5.10;59.13
60049;BME280;66154;45.544;6.756;2024-03-17T06:47:05;87492.59;;;5.14;58.47
60049;BME280;66154;45.544;6.756;2024-03-17T06:52:06;87492.94;;;5.19;59.33
60049;BME280;66154;45.544;6.756;2024-03-17T06:57:06;87510.81;;;5.24;59.56
60049;BME280;66154;45.544;6.756;2024-03-17T07:02:07;87501.84;;;5.32;59.05
60049;BME280;66154;45.544;6.756;2024-03-17T07:07:08;87494.38;;;5.41;58.04
60049;BME280;66154;45.544;6.756;2024-03-17T07:12:09;87494.72;;;5.54;59.11
60049;BME280;66154;45.544;6.756;2024-03-17T07:17:10;87503.97;;;5.66;58.41
60049;BME280;66154;45.544;6.756;2024-03-17T07:22:10;87511.03;;;5.76;58.46
60049;BME280;66154;45.544;6.756;2024-03-17T07:27:11;87524.03;;;5.86;59.08
60049;BME280;66154;45.544;6.756;2024-03-17T07:32:13;87535.59;;;5.96;59.17
60049;BME280;66154;45.544;6.756;2024-03-17T07:37:14;87537.03;;;6.04;58.99
60049;BME280;66154;45.544;6.756;2024-03-17T07:42:15;87541.09;;;6.12;59.23
60049;BME280;66154;45.544;6.756;2024-03-17T07:47:16;87535.09;;;6.22;60.51
60049;BME280;66154;45.544;6.756;2024-03-17T07:52:16;87540.25;;;6.32;60.02
60049;BME280;66154;45.544;6.756;2024-03-17T07:57:17;87554.72;;;6.44;58.38
60049;BME280;66154;45.544;6.756;2024-03-17T08:02:17;87564.00;;;6.59;60.55
60049;BME280;66154;45.544;6.756;2024-03-17T08:07:19;87572.47;;;6.74;61.37
60049;BME280;66154;45.544;6.756;2024-03-17T08:12:19;87557.81;;;6.87;58.33
60049;BME280;66154;45.544;6.756;2024-03-17T08:17:20;87549.50;;;7.02;57.67
60049;BME280;66154;45.544;6.756;2024-03-17T08:22:20;87548.25;;;7.21;57.73
60049;BME280;66154;45.544;6.756;2024-03-17T08:27:21;87535.00;;;7.38;59.06
60049;BME280;66154;45.544;6.756;2024-03-17T08:32:21;87525.19;;;7.50;58.74
60049;BME280;66154;45.544;6.756;2024-03-17T08:37:22;87523.19;;;7.64;57.93
60049;BME280;66154;45.544;6.756;2024-03-17T08:42:25;87525.66;;;7.78;58.22
60049;BME280;66154;45.544;6.756;2024-03-17T08:47:26;87526.19;;;7.96;59.86
60049;BME280;66154;45.544;6.756;2024-03-17T08:52:26;87530.16;;;8.11;59.36
60049;BME280;66154;45.544;6.756;2024-03-17T08:57:27;87526.66;;;8.25;59.49
60049;BME280;66154;45.544;6.756;2024-03-17T09:02:27;87520.69;;;8.21;58.09
60049;BME280;66154;45.544;6.756;2024-03-17T09:07:28;87520.34;;;8.19;56.13
60049;BME280;66154;45.544;6.756;2024-03-17T09:12:29;87523.00;;;8.15;53.11
60049;BME280;66154;45.544;6.756;2024-03-17T09:17:29;87526.38;;;8.12;57.72
60049;BME280;66154;45.544;6.756;2024-03-17T09:22:30;87527.78;;;8.20;58.25
60049;BME280;66154;45.544;6.756;2024-03-17T09:27:30;87538.16;;;8.31;57.08
60049;BME280;66154;45.544;6.756;2024-03-17T09:32:31;87523.50;;;8.37;57.83
60049;BME280;66154;45.544;6.756;2024-03-17T09:37:31;87519.59;;;8.49;57.59
60049;BME280;66154;45.544;6.756;2024-03-17T09:42:32;87520.25;;;8.56;57.01
60049;BME280;66154;45.544;6.756;2024-03-17T09:47:33;87522.34;;;8.68;58.03
60049;BME280;66154;45.544;6.756;2024-03-17T09:52:34;87524.72;;;8.86;57.20
60049;BME280;66154;45.544;6.756;2024-03-17T09:57:36;87520.41;;;8.99;56.91
60049;BME280;66154;45.544;6.756;2024-03-17T10:02:42;87525.84;;;9.11;58.28
60049;BME280;66154;45.544;6.756;2024-03-17T10:07:43;87513.28;;;9.23;56.92
60049;BME280;66154;45.544;6.756;2024-03-17T10:12:49;87513.00;;;9.40;55.93
60049;BME280;66154;45.544;6.756;2024-03-17T10:17:51;87503.69;;;9.59;58.12
60049;BME280;66154;45.544;6.756;2024-03-17T10:23:08;87502.63;;;9.76;55.82
60049;BME280;66154;45.544;6.756;2024-03-17T10:28:13;87521.88;;;9.92;54.87
60049;BME280;66154;45.544;6.756;2024-03-17T10:33:24;87511.69;;;9.94;58.02
60049;BME280;66154;45.544;6.756;2024-03-17T10:38:26;87517.91;;;10.04;54.96
60049;BME280;66154;45.544;6.756;2024-03-17T10:43:29;87508.63;;;10.19;48.87
60049;BME280;66154;45.544;6.756;2024-03-17T10:48:31;87512.19;;;10.29;54.66
60049;BME280;66154;45.544;6.756;2024-03-17T10:53:33;87517.84;;;10.47;57.37
60049;BME280;66154;45.544;6.756;2024-03-17T10:58:44;87518.97;;;10.65;56.08
60049;BME280;66154;45.544;6.756;2024-03-17T11:03:50;87508.81;;;10.83;58.06
60049;BME280;66154;45.544;6.756;2024-03-17T11:08:51;87510.75;;;10.99;59.22
60049;BME280;66154;45.544;6.756;2024-03-17T11:14:18;87505.66;;;11.08;56.00
60049;BME280;66154;45.544;6.756;2024-03-17T11:19:24;87500.38;;;11.24;55.60
60049;BME280;66154;45.544;6.756;2024-03-17T11:24:27;87491.00;;;11.39;57.19
60049;BME280;66154;45.544;6.756;2024-03-17T11:29:29;87485.56;;;11.46;57.87
60049;BME280;66154;45.544;6.756;2024-03-17T11:34:36;87481.19;;;11.56;56.07
60049;BME280;66154;45.544;6.756;2024-03-17T11:39:49;87471.91;;;11.67;56.23
60049;BME280;66154;45.544;6.756;2024-03-17T11:44:58;87474.44;;;11.71;58.72
60049;BME280;66154;45.544;6.756;2024-03-17T11:50:02;87466.13;;;11.72;57.23
60049;BME280;66154;45.544;6.756;2024-03-17T11:55:03;87456.25;;;11.76;53.04
60049;BME280;66154;45.544;6.756;2024-03-17T12:00:04;87451.63;;;11.80;53.35
60049;BME280;66154;45.544;6.756;2024-03-17T12:05:05;87462.66;;;11.92;53.89
60049;BME280;66154;45.544;6.756;2024-03-17T12:10:10;87456.53;;;11.95;55.37
60049;BME280;66154;45.544;6.756;2024-03-17T12:15:17;87454.34;;;11.93;54.07
60049;BME280;66154;45.544;6.756;2024-03-17T12:20:20;87445.16;;;11.98;46.54
60049;BME280;66154;45.544;6.756;2024-03-17T12:25:21;87440.63;;;11.98;55.75
60049;BME280;66154;45.544;6.756;2024-03-17T12:30:23;87438.88;;;12.08;51.39
60049;BME280;66154;45.544;6.756;2024-03-17T12:35:25;87441.09;;;12.09;52.32
60049;BME280;66154;45.544;6.756;2024-03-17T12:40:25;87437.31;;;12.10;57.89
60049;BME280;66154;45.544;6.756;2024-03-17T12:45:29;87433.28;;;12.06;56.36
60049;BME280;66154;45.544;6.756;2024-03-17T12:50:30;87422.47;;;12.16;57.71
60049;BME280;66154;45.544;6.756;2024-03-17T12:55:30;87424.88;;;12.23;57.14
60049;BME280;66154;45.544;6.756;2024-03-17T13:01:03;87410.56;;;12.24;54.36
60049;BME280;66154;45.544;6.756;2024-03-17T13:06:04;87414.25;;;12.27;52.19
60049;BME280;66154;45.544;6.756;2024-03-17T13:11:08;87407.41;;;12.29;57.22
60049;BME280;66154;45.544;6.756;2024-03-17T13:16:10;87402.03;;;12.33;44.79
60049;BME280;66154;45.544;6.756;2024-03-17T13:21:13;87401.19;;;12.36;57.82
60049;BME280;66154;45.544;6.756;2024-03-17T13:26:13;87400.66;;;12.41;56.08
60049;BME280;66154;45.544;6.756;2024-03-17T13:31:14;87387.69;;;12.46;53.05
60049;BME280;66154;45.544;6.756;2024-03-17T13:36:14;87390.13;;;12.53;58.43
60049;BME280;66154;45.544;6.756;2024-03-17T13:41:16;87390.75;;;12.57;55.54
60049;BME280;66154;45.544;6.756;2024-03-17T13:46:16;87377.81;;;12.63;40.37
60049;BME280;66154;45.544;6.756;2024-03-17T13:51:17;87383.38;;;12.65;57.37
60049;BME280;66154;45.544;6.756;2024-03-17T13:56:17;87385.59;;;12.66;55.41
60049;BME280;66154;45.544;6.756;2024-03-17T14:01:18;87375.25;;;12.72;57.36
60049;BME280;66154;45.544;6.756;2024-03-17T14:06:18;87356.75;;;12.85;56.91
60049;BME280;66154;45.544;6.756;2024-03-17T14:11:19;87357.06;;;12.99;55.95
60049;BME280;66154;45.544;6.756;2024-03-17T14:16:20;87358.22;;;12.98;55.38
60049;BME280;66154;45.544;6.756;2024-03-17T14:21:20;87357.28;;;12.92;54.42
60049;BME280;66154;45.544;6.756;2024-03-17T14:26:22;87348.44;;;12.86;56.19
60049;BME280;66154;45.544;6.756;2024-03-17T14:31:22;87342.00;;;12.87;55.29
60049;BME280;66154;45.544;6.756;2024-03-17T14:36:23;87365.00;;;12.87;55.10
60049;BME280;66154;45.544;6.756;2024-03-17T14:41:30;87366.28;;;12.82;57.06
60049;BME280;66154;45.544;6.756;2024-03-17T14:46:31;87350.84;;;12.80;47.39
60049;BME280;66154;45.544;6.756;2024-03-17T14:51:32;87345.38;;;12.88;56.75
60049;BME280;66154;45.544;6.756;2024-03-17T14:56:32;87332.16;;;13.00;53.45
60049;BME280;66154;45.544;6.756;2024-03-17T15:01:33;87328.28;;;13.39;54.53
60049;BME280;66154;45.544;6.756;2024-03-17T15:06:33;87329.47;;;13.81;53.77
60049;BME280;66154;45.544;6.756;2024-03-17T15:11:34;87336.22;;;14.04;52.40
60049;BME280;66154;45.544;6.756;2024-03-17T15:16:35;87337.25;;;14.06;57.09
60049;BME280;66154;45.544;6.756;2024-03-17T15:21:36;87321.53;;;14.03;53.42
60049;BME280;66154;45.544;6.756;2024-03-17T15:26:36;87333.47;;;13.86;54.09
60049;BME280;66154;45.544;6.756;2024-03-17T15:31:38;87332.78;;;13.73;56.81
60049;BME280;66154;45.544;6.756;2024-03-17T15:36:39;87330.94;;;13.60;54.63
60049;BME280;66154;45.544;6.756;2024-03-17T15:41:39;87323.91;;;13.45;50.72
60049;BME280;66154;45.544;6.756;2024-03-17T15:46:40;87313.19;;;13.27;53.35
60049;BME280;66154;45.544;6.756;2024-03-17T15:51:41;87300.69;;;13.18;53.79
60049;BME280;66154;45.544;6.756;2024-03-17T15:56:42;87282.41;;;13.11;56.22
60049;BME280;66154;45.544;6.756;2024-03-17T16:01:42;87300.47;;;13.00;55.24
60049;BME280;66154;45.544;6.756;2024-03-17T16:06:42;87289.41;;;12.93;54.45
60049;BME280;66154;45.544;6.756;2024-03-17T16:11:45;87303.38;;;12.80;51.17
60049;BME280;66154;45.544;6.756;2024-03-17T16:16:45;87313.97;;;12.68;54.90
60049;BME280;66154;45.544;6.756;2024-03-17T16:21:46;87302.47;;;12.62;54.68
60049;BME280;66154;45.544;6.756;2024-03-17T16:26:47;87297.81;;;12.53;53.68
60049;BME280;66154;45.544;6.756;2024-03-17T16:31:47;87302.25;;;12.44;57.11
60049;BME280;66154;45.544;6.756;2024-03-17T16:36:50;87291.09;;;12.27;56.09
60049;BME280;66154;45.544;6.756;2024-03-17T16:41:51;87304.38;;;12.11;55.67
60049;BME280;66154;45.544;6.756;2024-03-17T16:47:33;87314.16;;;11.98;55.57
60049;BME280;66154;45.544;6.756;2024-03-17T16:52:36;87303.53;;;11.89;56.02
60049;BME280;66154;45.544;6.756;2024-03-17T16:57:36;87313.53;;;11.81;55.70
60049;BME280;66154;45.544;6.756;2024-03-17T17:02:37;87316.44;;;11.71;55.52
60049;BME280;66154;45.544;6.756;2024-03-17T17:07:41;87328.81;;;11.58;56.54
60049;BME280;66154;45.544;6.756;2024-03-17T17:12:48;87334.34;;;11.47;55.95
60049;BME280;66154;45.544;6.756;2024-03-17T17:17:49;87336.44;;;11.40;56.25
60049;BME280;66154;45.544;6.756;2024-03-17T17:22:55;87333.16;;;11.36;57.04
60049;BME280;66154;45.544;6.756;2024-03-17T17:27:55;87350.63;;;11.30;56.99
60049;BME280;66154;45.544;6.756;2024-03-17T17:32:57;87340.78;;;11.18;57.02
60049;BME280;66154;45.544;6.756;2024-03-17T17:37:59;87339.16;;;11.08;56.72
60049;BME280;66154;45.544;6.756;2024-03-17T17:42:59;87340.22;;;10.94;56.17
60049;BME280;66154;45.544;6.756;2024-03-17T17:48:01;87350.69;;;10.81;56.61
60049;BME280;66154;45.544;6.756;2024-03-17T17:53:04;87360.38;;;10.68;54.41
60049;BME280;66154;45.544;6.756;2024-03-17T17:58:05;87361.06;;;10.56;53.41
60049;BME280;66154;45.544;6.756;2024-03-17T18:03:05;87357.44;;;10.50;55.97
60049;BME280;66154;45.544;6.756;2024-03-17T18:08:06;87359.56;;;10.39;56.21
60049;BME280;66154;45.544;6.756;2024-03-17T18:13:07;87368.00;;;10.31;55.58
60049;BME280;66154;45.544;6.756;2024-03-17T18:18:08;87364.06;;;10.23;56.29
60049;BME280;66154;45.544;6.756;2024-03-17T18:23:08;87348.78;;;10.18;56.71
60049;BME280;66154;45.544;6.756;2024-03-17T18:28:09;87360.16;;;10.11;56.59
60049;BME280;66154;45.544;6.756;2024-03-17T18:33:09;87360.38;;;10.00;56.68
60049;BME280;66154;45.544;6.756;2024-03-17T18:38:10;87365.09;;;9.89;56.81
60049;BME280;66154;45.544;6.756;2024-03-17T18:43:11;87367.88;;;9.82;56.89
60049;BME280;66154;45.544;6.756;2024-03-17T18:48:12;87362.78;;;9.75;56.84
60049;BME280;66154;45.544;6.756;2024-03-17T18:53:12;87371.09;;;9.70;57.02
60049;BME280;66154;45.544;6.756;2024-03-17T18:58:13;87373.88;;;9.63;57.24
60049;BME280;66154;45.544;6.756;2024-03-17T19:03:13;87376.31;;;9.54;57.22
60049;BME280;66154;45.544;6.756;2024-03-17T19:08:14;87389.97;;;9.46;57.28
60049;BME280;66154;45.544;6.756;2024-03-17T19:13:14;87383.34;;;9.38;57.69
60049;BME280;66154;45.544;6.756;2024-03-17T19:18:15;87388.69;;;9.34;57.80
60049;BME280;66154;45.544;6.756;2024-03-17T19:23:16;87391.38;;;9.31;57.36
60049;BME280;66154;45.544;6.756;2024-03-17T19:28:16;87382.06;;;9.26;57.46
60049;BME280;66154;45.544;6.756;2024-03-17T19:33:17;87396.34;;;9.25;57.52
60049;BME280;66154;45.544;6.756;2024-03-17T19:38:17;87395.59;;;9.25;57.26
60049;BME280;66154;45.544;6.756;2024-03-17T19:43:18;87392.97;;;9.25;57.73
60049;BME280;66154;45.544;6.756;2024-03-17T19:48:18;87404.28;;;9.22;57.42
60049;BME280;66154;45.544;6.756;2024-03-17T19:53:19;87393.81;;;9.18;57.56
60049;BME280;66154;45.544;6.756;2024-03-17T19:58:20;87407.00;;;9.14;57.56
60049;BME280;66154;45.544;6.756;2024-03-17T20:03:23;87404.03;;;9.12;57.85
60049;BME280;66154;45.544;6.756;2024-03-17T20:08:23;87389.13;;;9.09;57.92
60049;BME280;66154;45.544;6.756;2024-03-17T20:13:26;87394.44;;;9.06;57.88
60049;BME280;66154;45.544;6.756;2024-03-17T20:18:26;87387.75;;;9.01;57.96
60049;BME280;66154;45.544;6.756;2024-03-17T20:23:27;87378.88;;;8.95;57.76
60049;BME280;66154;45.544;6.756;2024-03-17T20:28:27;87378.19;;;8.91;57.92
60049;BME280;66154;45.544;6.756;2024-03-17T20:33:28;87381.22;;;8.90;58.05
60049;BME280;66154;45.544;6.756;2024-03-17T20:38:29;87378.66;;;8.86;58.33
60049;BME280;66154;45.544;6.756;2024-03-17T20:43:30;87378.72;;;8.83;58.14
60049;BME280;66154;45.544;6.756;2024-03-17T20:48:31;87384.41;;;8.78;58.09
60049;BME280;66154;45.544;6.756;2024-03-17T20:53:32;87378.44;;;8.77;58.45
60049;BME280;66154;45.544;6.756;2024-03-17T20:58:33;87385.22;;;8.75;58.29
60049;BME280;66154;45.544;6.756;2024-03-17T21:03:33;87382.66;;;8.71;58.51
60049;BME280;66154;45.544;6.756;2024-03-17T21:08:34;87381.56;;;8.69;58.17
60049;BME280;66154;45.544;6.756;2024-03-17T21:13:34;87375.97;;;8.67;58.92
60049;BME280;66154;45.544;6.756;2024-03-17T21:18:35;87383.84;;;8.67;58.99
60049;BME280;66154;45.544;6.756;2024-03-17T21:23:36;87390.94;;;8.66;59.42
60049;BME280;66154;45.544;6.756;2024-03-17T21:28:37;87395.84;;;8.64;57.60
60049;BME280;66154;45.544;6.756;2024-03-17T21:33:38;87391.06;;;8.59;59.26
60049;BME280;66154;45.544;6.756;2024-03-17T21:38:39;87389.97;;;8.57;60.13
60049;BME280;66154;45.544;6.756;2024-03-17T21:43:43;87393.00;;;8.55;61.01
60049;BME280;66154;45.544;6.756;2024-03-17T21:48:43;87391.19;;;8.52;59.82
60049;BME280;66154;45.544;6.756;2024-03-17T21:53:44;87392.78;;;8.46;60.10
60049;BME280;66154;45.544;6.756;2024-03-17T21:58:44;87399.94;;;8.42;60.66
60049;BME280;66154;45.544;6.756;2024-03-17T22:03:45;87394.41;;;8.37;61.20
60049;BME280;66154;45.544;6.756;2024-03-17T22:08:47;87397.13;;;8.30;61.10
60049;BME280;66154;45.544;6.756;2024-03-17T22:13:47;87396.81;;;8.24;61.13
60049;BME280;66154;45.544;6.756;2024-03-17T22:18:48;87399.13;;;8.18;61.47
60049;BME280;66154;45.544;6.756;2024-03-17T22:23:48;87399.59;;;8.13;61.42
60049;BME280;66154;45.544;6.756;2024-03-17T22:28:49;87396.28;;;8.09;61.38
60049;BME280;66154;45.544;6.756;2024-03-17T22:33:50;87395.97;;;8.04;62.15
60049;BME280;66154;45.544;6.756;2024-03-17T22:38:51;87392.66;;;8.00;60.87
60049;BME280;66154;45.544;6.756;2024-03-17T22:43:51;87393.47;;;7.93;61.36
60049;BME280;66154;45.544;6.756;2024-03-17T22:48:52;87387.25;;;7.84;61.81
60049;BME280;66154;45.544;6.756;2024-03-17T22:53:52;87381.31;;;7.80;61.83
60049;BME280;66154;45.544;6.756;2024-03-17T22:58:53;87379.16;;;7.75;61.91
60049;BME280;66154;45.544;6.756;2024-03-17T23:03:54;87369.09;;;7.70;60.59
60049;BME280;66154;45.544;6.756;2024-03-17T23:08:54;87376.25;;;7.66;63.14
60049;BME280;66154;45.544;6.756;2024-03-17T23:13:55;87371.81;;;7.63;62.51
60049;BME280;66154;45.544;6.756;2024-03-17T23:18:55;87367.38;;;7.60;63.09
60049;BME280;66154;45.544;6.756;2024-03-17T23:23:56;87366.69;;;7.56;62.67
60049;BME280;66154;45.544;6.756;2024-03-17T23:28:56;87364.09;;;7.52;62.70
60049;BME280;66154;45.544;6.756;2024-03-17T23:33:57;87354.03;;;7.51;62.99
60049;BME280;66154;45.544;6.756;2024-03-17T23:39:00;87361.19;;;7.47;62.25
60049;BME280;66154;45.544;6.756;2024-03-17T23:44:00;87349.66;;;7.41;62.75
60049;BME280;66154;45.544;6.756;2024-03-17T23:49:01;87360.56;;;7.35;62.07
60049;BME280;66154;45.544;6.756;2024-03-17T23:54:01;87353.53;;;7.29;62.36
60049;BME280;66154;45.544;6.756;2024-03-17T23:59:02;87361.81;;;7.24;61.28
